sensor_id;sensor_type;location;lat;lon;timestamp;P1;durP1;ratioP1;P2;durP2;ratioP2
19985;SDS011;10154;52.474;10.768;2023-07-31T00:02:15;5.23;;;1.70;;
19985;SDS011;10154;52.474;10.768;2023-07-31T00:04:41;7.07;;;2.00;;
19985;SDS011;10154;52.474;10.768;2023-07-31T00:07:06;8.80;;;1.93;;
19985;SDS011;10154;52.474;10.768;2023-07-31T00:09:32;4.20;;;2.00;;
19985;SDS011;10154;52.474;10.768;2023-07-31T00:11:58;5.07;;;1.87;;
19985;SDS011;10154;52.474;10.768;2023-07-31T00:14:23;5.00;;;1.90;;
19985;SDS011;10154;52.474;10.768;2023-07-31T00:16:49;6.33;;;2.27;;
19985;SDS011;10154;52.474;10.768;2023-07-31T00:19:15;7.80;;;1.80;;
19985;SDS011;10154;52.474;10.768;2023-07-31T00:21:40;7.23;;;1.83;;
19985;SDS011;10154;52.474;10.768;2023-07-31T00:24:06;7.97;;;1.93;;
19985;SDS011;10154;52.474;10.768;2023-07-31T00:26:31;7.17;;;1.80;;
19985;SDS011;10154;52.474;10.768;2023-07-31T00:28:56;8.57;;;1.90;;
19985;SDS011;10154;52.474;10.768;2023-07-31T00:31:22;5.72;;;1.80;;
19985;SDS011;10154;52.474;10.768;2023-07-31T00:33:47;3.50;;;1.40;;
19985;SDS011;10154;52.474;10.768;2023-07-31T00:36:14;3.97;;;1.88;;
19985;SDS011;10154;52.474;10.768;2023-07-31T00:38:39;5.33;;;1.70;;
19985;SDS011;10154;52.474;10.768;2023-07-31T00:41:04;6.63;;;1.70;;
19985;SDS011;10154;52.474;10.768;2023-07-31T00:43:31;5.93;;;1.47;;
19985;SDS011;10154;52.474;10.768;2023-07-31T00:45:56;3.60;;;1.60;;
19985;SDS011;10154;52.474;10.768;2023-07-31T00:48:22;6.20;;;1.40;;
19985;SDS011;10154;52.474;10.768;2023-07-31T00:50:48;3.63;;;1.47;;
19985;SDS011;10154;52.474;10.768;2023-07-31T00:53:14;3.97;;;1.43;;
19985;SDS011;10154;52.474;10.768;2023-07-31T00:55:39;4.50;;;1.47;;
19985;SDS011;10154;52.474;10.768;2023-07-31T00:58:05;4.17;;;1.70;;
19985;SDS011;10154;52.474;10.768;2023-07-31T01:00:31;4.50;;;1.43;;
19985;SDS011;10154;52.474;10.768;2023-07-31T01:02:56;3.87;;;1.33;;
19985;SDS011;10154;52.474;10.768;2023-07-31T01:08:33;3.03;;;1.50;;
19985;SDS011;10154;52.474;10.768;2023-07-31T01:11:00;3.17;;;1.40;;
19985;SDS011;10154;52.474;10.768;2023-07-31T01:13:33;7.20;;;1.57;;
19985;SDS011;10154;52.474;10.768;2023-07-31T01:15:59;7.43;;;1.80;;
19985;SDS011;10154;52.474;10.768;2023-07-31T01:18:24;7.30;;;2.07;;
19985;SDS011;10154;52.474;10.768;2023-07-31T01:20:54;4.10;;;1.80;;
19985;SDS011;10154;52.474;10.768;2023-07-31T01:23:33;6.77;;;1.60;;
19985;SDS011;10154;52.474;10.768;2023-07-31T01:31:37;3.93;;;1.60;;
19985;SDS011;10154;52.474;10.768;2023-07-31T01:34:03;7.53;;;1.50;;
19985;SDS011;10154;52.474;10.768;2023-07-31T01:36:29;4.03;;;1.50;;
19985;SDS011;10154;52.474;10.768;2023-07-31T01:39:01;4.40;;;1.60;;
19985;SDS011;10154;52.474;10.768;2023-07-31T01:41:28;4.70;;;1.70;;
19985;SDS011;10154;52.474;10.768;2023-07-31T01:43:54;4.37;;;1.20;;
19985;SDS011;10154;52.474;10.768;2023-07-31T01:46:19;2.87;;;1.57;;
19985;SDS011;10154;52.474;10.768;2023-07-31T01:48:44;4.83;;;1.60;;
19985;SDS011;10154;52.474;10.768;2023-07-31T01:51:10;3.97;;;1.40;;
19985;SDS011;10154;52.474;10.768;2023-07-31T01:53:35;2.83;;;1.40;;
19985;SDS011;10154;52.474;10.768;2023-07-31T01:56:01;7.47;;;1.40;;
19985;SDS011;10154;52.474;10.768;2023-07-31T01:58:26;3.17;;;1.40;;
19985;SDS011;10154;52.474;10.768;2023-07-31T02:00:51;5.30;;;1.57;;
19985;SDS011;10154;52.474;10.768;2023-07-31T02:03:17;5.47;;;1.47;;
19985;SDS011;10154;52.474;10.768;2023-07-31T02:05:45;5.83;;;1.83;;
19985;SDS011;10154;52.474;10.768;2023-07-31T02:08:11;3.90;;;1.30;;
19985;SDS011;10154;52.474;10.768;2023-07-31T02:10:37;5.57;;;1.30;;
19985;SDS011;10154;52.474;10.768;2023-07-31T02:13:02;3.47;;;1.20;;
19985;SDS011;10154;52.474;10.768;2023-07-31T02:15:29;5.23;;;1.50;;
19985;SDS011;10154;52.474;10.768;2023-07-31T02:17:54;5.67;;;1.50;;
19985;SDS011;10154;52.474;10.768;2023-07-31T02:20:20;2.97;;;1.40;;
19985;SDS011;10154;52.474;10.768;2023-07-31T02:22:45;5.23;;;1.50;;
19985;SDS011;10154;52.474;10.768;2023-07-31T02:25:11;3.90;;;1.50;;
19985;SDS011;10154;52.474;10.768;2023-07-31T02:27:36;5.50;;;1.50;;
19985;SDS011;10154;52.474;10.768;2023-07-31T02:30:01;3.23;;;1.63;;
19985;SDS011;10154;52.474;10.768;2023-07-31T02:32:27;5.63;;;1.60;;
19985;SDS011;10154;52.474;10.768;2023-07-31T02:34:52;4.73;;;1.67;;
19985;SDS011;10154;52.474;10.768;2023-07-31T02:37:18;4.30;;;1.83;;
19985;SDS011;10154;52.474;10.768;2023-07-31T02:39:43;4.13;;;1.60;;
19985;SDS011;10154;52.474;10.768;2023-07-31T02:42:09;6.03;;;1.80;;
19985;SDS011;10154;52.474;10.768;2023-07-31T02:44:34;7.17;;;1.90;;
19985;SDS011;10154;52.474;10.768;2023-07-31T02:46:59;6.83;;;1.70;;
19985;SDS011;10154;52.474;10.768;2023-07-31T02:49:25;10.40;;;1.97;;
19985;SDS011;10154;52.474;10.768;2023-07-31T02:51:50;8.93;;;1.80;;
19985;SDS011;10154;52.474;10.768;2023-07-31T02:54:15;6.40;;;1.80;;
19985;SDS011;10154;52.474;10.768;2023-07-31T02:56:41;3.93;;;1.70;;
19985;SDS011;10154;52.474;10.768;2023-07-31T02:59:06;4.37;;;1.80;;
19985;SDS011;10154;52.474;10.768;2023-07-31T03:01:31;5.73;;;1.90;;
19985;SDS011;10154;52.474;10.768;2023-07-31T03:03:57;6.73;;;2.50;;
19985;SDS011;10154;52.474;10.768;2023-07-31T03:06:22;6.80;;;1.97;;
19985;SDS011;10154;52.474;10.768;2023-07-31T03:08:47;4.93;;;1.47;;
19985;SDS011;10154;52.474;10.768;2023-07-31T03:11:13;2.67;;;1.50;;
19985;SDS011;10154;52.474;10.768;2023-07-31T03:13:38;6.97;;;1.73;;
19985;SDS011;10154;52.474;10.768;2023-07-31T03:16:04;2.90;;;1.60;;
19985;SDS011;10154;52.474;10.768;2023-07-31T03:18:29;4.30;;;1.40;;
19985;SDS011;10154;52.474;10.768;2023-07-31T03:20:54;4.70;;;1.87;;
19985;SDS011;10154;52.474;10.768;2023-07-31T03:23:20;4.43;;;1.70;;
19985;SDS011;10154;52.474;10.768;2023-07-31T03:26:01;5.33;;;1.60;;
19985;SDS011;10154;52.474;10.768;2023-07-31T03:28:30;3.00;;;1.60;;
19985;SDS011;10154;52.474;10.768;2023-07-31T03:30:55;3.00;;;1.50;;
19985;SDS011;10154;52.474;10.768;2023-07-31T03:33:21;3.23;;;1.60;;
19985;SDS011;10154;52.474;10.768;2023-07-31T03:35:46;6.30;;;1.60;;
19985;SDS011;10154;52.474;10.768;2023-07-31T03:38:11;4.10;;;1.53;;
19985;SDS011;10154;52.474;10.768;2023-07-31T03:40:37;4.40;;;1.37;;
19985;SDS011;10154;52.474;10.768;2023-07-31T03:43:02;2.87;;;1.60;;
19985;SDS011;10154;52.474;10.768;2023-07-31T03:45:28;5.23;;;1.80;;
19985;SDS011;10154;52.474;10.768;2023-07-31T03:47:53;5.37;;;1.40;;
19985;SDS011;10154;52.474;10.768;2023-07-31T03:50:19;6.87;;;1.37;;
19985;SDS011;10154;52.474;10.768;2023-07-31T03:52:45;3.03;;;1.50;;
19985;SDS011;10154;52.474;10.768;2023-07-31T03:55:10;3.10;;;1.40;;
19985;SDS011;10154;52.474;10.768;2023-07-31T03:57:35;4.13;;;1.50;;
19985;SDS011;10154;52.474;10.768;2023-07-31T04:00:01;5.23;;;1.40;;
19985;SDS011;10154;52.474;10.768;2023-07-31T04:02:26;2.90;;;1.30;;
19985;SDS011;10154;52.474;10.768;2023-07-31T04:04:52;3.23;;;1.20;;
19985;SDS011;10154;52.474;10.768;2023-07-31T04:07:17;2.47;;;1.30;;
19985;SDS011;10154;52.474;10.768;2023-07-31T04:09:42;2.70;;;1.23;;
19985;SDS011;10154;52.474;10.768;2023-07-31T04:12:08;2.03;;;1.20;;
19985;SDS011;10154;52.474;10.768;2023-07-31T04:14:33;4.13;;;1.50;;
19985;SDS011;10154;52.474;10.768;2023-07-31T04:16:58;2.77;;;1.37;;
19985;SDS011;10154;52.474;10.768;2023-07-31T04:19:24;3.73;;;1.40;;
19985;SDS011;10154;52.474;10.768;2023-07-31T04:21:49;3.47;;;1.30;;
19985;SDS011;10154;52.474;10.768;2023-07-31T04:24:15;4.03;;;1.50;;
19985;SDS011;10154;52.474;10.768;2023-07-31T04:26:40;2.47;;;1.30;;
19985;SDS011;10154;52.474;10.768;2023-07-31T04:29:05;3.60;;;1.47;;
19985;SDS011;10154;52.474;10.768;2023-07-31T04:31:31;6.97;;;1.70;;
19985;SDS011;10154;52.474;10.768;2023-07-31T04:33:56;3.43;;;1.20;;
19985;SDS011;10154;52.474;10.768;2023-07-31T04:36:21;3.37;;;1.30;;
19985;SDS011;10154;52.474;10.768;2023-07-31T04:38:47;2.93;;;1.47;;
19985;SDS011;10154;52.474;10.768;2023-07-31T04:41:12;2.57;;;1.30;;
19985;SDS011;10154;52.474;10.768;2023-07-31T04:43:37;3.80;;;1.37;;
19985;SDS011;10154;52.474;10.768;2023-07-31T04:46:04;2.97;;;1.20;;
19985;SDS011;10154;52.474;10.768;2023-07-31T04:48:30;3.50;;;1.40;;
19985;SDS011;10154;52.474;10.768;2023-07-31T04:50:55;2.93;;;1.30;;
19985;SDS011;10154;52.474;10.768;2023-07-31T04:53:21;1.57;;;1.20;;
19985;SDS011;10154;52.474;10.768;2023-07-31T04:55:46;1.83;;;1.30;;
19985;SDS011;10154;52.474;10.768;2023-07-31T04:58:11;2.03;;;1.40;;
19985;SDS011;10154;52.474;10.768;2023-07-31T05:00:37;3.20;;;1.20;;
19985;SDS011;10154;52.474;10.768;2023-07-31T05:03:02;1.47;;;1.10;;
19985;SDS011;10154;52.474;10.768;2023-07-31T05:05:27;3.77;;;1.20;;
19985;SDS011;10154;52.474;10.768;2023-07-31T05:07:53;4.73;;;1.43;;
19985;SDS011;10154;52.474;10.768;2023-07-31T05:10:18;2.33;;;1.40;;
19985;SDS011;10154;52.474;10.768;2023-07-31T05:12:44;2.67;;;1.20;;
19985;SDS011;10154;52.474;10.768;2023-07-31T05:15:09;3.08;;;1.20;;
19985;SDS011;10154;52.474;10.768;2023-07-31T05:17:35;5.57;;;1.40;;
19985;SDS011;10154;52.474;10.768;2023-07-31T05:20:00;1.73;;;1.30;;
19985;SDS011;10154;52.474;10.768;2023-07-31T05:22:25;3.53;;;1.20;;
19985;SDS011;10154;52.474;10.768;2023-07-31T05:24:51;3.33;;;1.27;;
19985;SDS011;10154;52.474;10.768;2023-07-31T05:27:16;2.40;;;1.03;;
19985;SDS011;10154;52.474;10.768;2023-07-31T05:29:43;1.83;;;1.00;;
19985;SDS011;10154;52.474;10.768;2023-07-31T05:32:09;2.20;;;1.30;;
19985;SDS011;10154;52.474;10.768;2023-07-31T05:34:34;1.90;;;1.00;;
19985;SDS011;10154;52.474;10.768;2023-07-31T05:37:00;2.27;;;1.13;;
19985;SDS011;10154;52.474;10.768;2023-07-31T05:39:25;1.67;;;0.90;;
19985;SDS011;10154;52.474;10.768;2023-07-31T05:41:50;6.33;;;1.03;;
19985;SDS011;10154;52.474;10.768;2023-07-31T05:44:15;1.20;;;0.77;;
19985;SDS011;10154;52.474;10.768;2023-07-31T05:46:41;1.80;;;0.90;;
19985;SDS011;10154;52.474;10.768;2023-07-31T05:49:06;2.40;;;1.00;;
19985;SDS011;10154;52.474;10.768;2023-07-31T05:51:32;2.13;;;1.10;;
19985;SDS011;10154;52.474;10.768;2023-07-31T05:53:57;2.40;;;1.10;;
19985;SDS011;10154;52.474;10.768;2023-07-31T05:56:22;2.73;;;1.00;;
19985;SDS011;10154;52.474;10.768;2023-07-31T05:58:48;2.50;;;1.10;;
19985;SDS011;10154;52.474;10.768;2023-07-31T06:01:15;1.87;;;0.90;;
19985;SDS011;10154;52.474;10.768;2023-07-31T06:03:41;2.33;;;1.02;;
19985;SDS011;10154;52.474;10.768;2023-07-31T06:06:07;1.73;;;1.00;;
19985;SDS011;10154;52.474;10.768;2023-07-31T06:08:32;1.93;;;1.10;;
19985;SDS011;10154;52.474;10.768;2023-07-31T06:10:58;1.87;;;1.00;;
19985;SDS011;10154;52.474;10.768;2023-07-31T06:13:23;2.23;;;0.90;;
19985;SDS011;10154;52.474;10.768;2023-07-31T06:15:49;1.50;;;1.00;;
19985;SDS011;10154;52.474;10.768;2023-07-31T06:18:14;1.87;;;0.97;;
19985;SDS011;10154;52.474;10.768;2023-07-31T06:20:39;1.83;;;1.00;;
19985;SDS011;10154;52.474;10.768;2023-07-31T06:23:05;1.00;;;0.80;;
19985;SDS011;10154;52.474;10.768;2023-07-31T06:25:31;1.20;;;0.90;;
19985;SDS011;10154;52.474;10.768;2023-07-31T06:27:56;1.00;;;0.80;;
19985;SDS011;10154;52.474;10.768;2023-07-31T06:30:22;1.63;;;0.80;;
19985;SDS011;10154;52.474;10.768;2023-07-31T06:32:47;1.87;;;1.00;;
19985;SDS011;10154;52.474;10.768;2023-07-31T06:35:12;3.53;;;1.00;;
19985;SDS011;10154;52.474;10.768;2023-07-31T06:37:38;2.20;;;0.90;;
19985;SDS011;10154;52.474;10.768;2023-07-31T06:40:05;1.50;;;1.00;;
19985;SDS011;10154;52.474;10.768;2023-07-31T06:42:33;1.53;;;1.00;;
19985;SDS011;10154;52.474;10.768;2023-07-31T06:44:59;1.90;;;1.00;;
19985;SDS011;10154;52.474;10.768;2023-07-31T06:47:25;1.43;;;0.90;;
19985;SDS011;10154;52.474;10.768;2023-07-31T06:49:51;1.07;;;0.97;;
19985;SDS011;10154;52.474;10.768;2023-07-31T06:52:16;3.47;;;1.20;;
19985;SDS011;10154;52.474;10.768;2023-07-31T06:54:41;1.87;;;1.23;;
19985;SDS011;10154;52.474;10.768;2023-07-31T06:57:07;2.93;;;1.57;;
19985;SDS011;10154;52.474;10.768;2023-07-31T06:59:33;1.97;;;1.50;;
19985;SDS011;10154;52.474;10.768;2023-07-31T07:01:58;4.90;;;2.10;;
19985;SDS011;10154;52.474;10.768;2023-07-31T07:04:23;7.63;;;2.20;;
19985;SDS011;10154;52.474;10.768;2023-07-31T07:06:49;4.73;;;1.93;;
19985;SDS011;10154;52.474;10.768;2023-07-31T07:09:14;4.17;;;2.10;;
19985;SDS011;10154;52.474;10.768;2023-07-31T07:11:39;5.47;;;2.53;;
19985;SDS011;10154;52.474;10.768;2023-07-31T07:14:05;6.67;;;2.87;;
19985;SDS011;10154;52.474;10.768;2023-07-31T07:16:30;4.03;;;2.50;;
19985;SDS011;10154;52.474;10.768;2023-07-31T07:18:55;7.13;;;2.70;;
19985;SDS011;10154;52.474;10.768;2023-07-31T07:21:21;6.03;;;3.17;;
19985;SDS011;10154;52.474;10.768;2023-07-31T07:23:46;5.17;;;2.83;;
19985;SDS011;10154;52.474;10.768;2023-07-31T07:26:12;7.28;;;3.47;;
19985;SDS011;10154;52.474;10.768;2023-07-31T07:28:37;8.70;;;3.30;;
19985;SDS011;10154;52.474;10.768;2023-07-31T07:31:02;7.07;;;3.43;;
19985;SDS011;10154;52.474;10.768;2023-07-31T07:33:28;7.80;;;3.80;;
19985;SDS011;10154;52.474;10.768;2023-07-31T07:35:53;8.63;;;3.73;;
19985;SDS011;10154;52.474;10.768;2023-07-31T07:38:19;5.85;;;3.80;;
19985;SDS011;10154;52.474;10.768;2023-07-31T07:40:44;11.55;;;3.78;;
19985;SDS011;10154;52.474;10.768;2023-07-31T07:43:11;6.50;;;3.78;;
19985;SDS011;10154;52.474;10.768;2023-07-31T07:45:37;8.50;;;3.90;;
19985;SDS011;10154;52.474;10.768;2023-07-31T07:48:02;9.52;;;4.82;;
19985;SDS011;10154;52.474;10.768;2023-07-31T07:50:28;11.03;;;5.30;;
19985;SDS011;10154;52.474;10.768;2023-07-31T07:52:53;11.05;;;4.63;;
19985;SDS011;10154;52.474;10.768;2023-07-31T07:55:19;16.47;;;6.03;;
19985;SDS011;10154;52.474;10.768;2023-07-31T07:57:46;13.27;;;5.73;;
19985;SDS011;10154;52.474;10.768;2023-07-31T08:00:12;13.10;;;6.80;;
19985;SDS011;10154;52.474;10.768;2023-07-31T08:02:38;10.80;;;5.90;;
19985;SDS011;10154;52.474;10.768;2023-07-31T08:05:03;11.40;;;6.17;;
19985;SDS011;10154;52.474;10.768;2023-07-31T08:07:29;11.83;;;6.63;;
19985;SDS011;10154;52.474;10.768;2023-07-31T08:09:54;13.75;;;6.45;;
19985;SDS011;10154;52.474;10.768;2023-07-31T08:12:19;13.93;;;6.38;;
19985;SDS011;10154;52.474;10.768;2023-07-31T08:14:45;15.77;;;6.20;;
19985;SDS011;10154;52.474;10.768;2023-07-31T08:17:10;13.68;;;6.97;;
19985;SDS011;10154;52.474;10.768;2023-07-31T08:19:36;14.27;;;6.95;;
19985;SDS011;10154;52.474;10.768;2023-07-31T08:22:01;14.45;;;6.47;;
19985;SDS011;10154;52.474;10.768;2023-07-31T08:24:26;17.35;;;7.72;;
19985;SDS011;10154;52.474;10.768;2023-07-31T08:26:52;13.70;;;7.30;;
19985;SDS011;10154;52.474;10.768;2023-07-31T08:29:17;21.77;;;7.95;;
19985;SDS011;10154;52.474;10.768;2023-07-31T08:31:42;15.45;;;7.13;;
19985;SDS011;10154;52.474;10.768;2023-07-31T08:34:08;15.38;;;6.45;;
19985;SDS011;10154;52.474;10.768;2023-07-31T08:36:33;13.07;;;6.38;;
19985;SDS011;10154;52.474;10.768;2023-07-31T08:38:58;14.68;;;7.07;;
19985;SDS011;10154;52.474;10.768;2023-07-31T08:41:24;13.75;;;6.50;;
19985;SDS011;10154;52.474;10.768;2023-07-31T08:43:50;13.00;;;6.20;;
19985;SDS011;10154;52.474;10.768;2023-07-31T08:46:16;17.60;;;6.07;;
19985;SDS011;10154;52.474;10.768;2023-07-31T08:48:42;13.82;;;6.20;;
19985;SDS011;10154;52.474;10.768;2023-07-31T08:51:09;39.83;;;6.63;;
19985;SDS011;10154;52.474;10.768;2023-07-31T08:53:34;23.45;;;6.55;;
19985;SDS011;10154;52.474;10.768;2023-07-31T08:56:00;48.60;;;9.02;;
19985;SDS011;10154;52.474;10.768;2023-07-31T08:58:27;13.05;;;5.65;;
19985;SDS011;10154;52.474;10.768;2023-07-31T09:00:57;16.10;;;6.00;;
19985;SDS011;10154;52.474;10.768;2023-07-31T09:03:24;12.07;;;4.93;;
19985;SDS011;10154;52.474;10.768;2023-07-31T09:05:50;13.32;;;4.95;;
19985;SDS011;10154;52.474;10.768;2023-07-31T09:08:18;12.80;;;5.20;;
19985;SDS011;10154;52.474;10.768;2023-07-31T09:10:45;10.85;;;4.63;;
19985;SDS011;10154;52.474;10.768;2023-07-31T09:13:14;12.75;;;4.85;;
19985;SDS011;10154;52.474;10.768;2023-07-31T09:15:40;11.10;;;4.53;;
19985;SDS011;10154;52.474;10.768;2023-07-31T09:18:07;15.43;;;4.60;;
19985;SDS011;10154;52.474;10.768;2023-07-31T09:20:33;11.05;;;4.65;;
19985;SDS011;10154;52.474;10.768;2023-07-31T09:23:09;11.85;;;4.40;;
19985;SDS011;10154;52.474;10.768;2023-07-31T09:25:36;10.52;;;4.35;;
19985;SDS011;10154;52.474;10.768;2023-07-31T09:28:08;8.25;;;4.25;;
19985;SDS011;10154;52.474;10.768;2023-07-31T09:30:45;12.23;;;4.25;;
19985;SDS011;10154;52.474;10.768;2023-07-31T09:33:11;11.63;;;4.60;;
19985;SDS011;10154;52.474;10.768;2023-07-31T09:35:36;9.23;;;4.00;;
19985;SDS011;10154;52.474;10.768;2023-07-31T09:38:09;13.75;;;4.88;;
19985;SDS011;10154;52.474;10.768;2023-07-31T09:40:39;10.63;;;4.00;;
19985;SDS011;10154;52.474;10.768;2023-07-31T09:43:06;11.90;;;4.50;;
19985;SDS011;10154;52.474;10.768;2023-07-31T09:45:39;12.75;;;4.13;;
19985;SDS011;10154;52.474;10.768;2023-07-31T09:48:09;11.77;;;4.35;;
19985;SDS011;10154;52.474;10.768;2023-07-31T09:50:39;12.63;;;3.92;;
19985;SDS011;10154;52.474;10.768;2023-07-31T09:53:27;11.10;;;4.13;;
19985;SDS011;10154;52.474;10.768;2023-07-31T09:55:54;9.65;;;4.10;;
19985;SDS011;10154;52.474;10.768;2023-07-31T09:58:19;9.88;;;3.72;;
19985;SDS011;10154;52.474;10.768;2023-07-31T10:00:45;10.68;;;4.30;;
19985;SDS011;10154;52.474;10.768;2023-07-31T10:03:11;12.25;;;3.83;;
19985;SDS011;10154;52.474;10.768;2023-07-31T10:05:38;11.30;;;3.72;;
19985;SDS011;10154;52.474;10.768;2023-07-31T10:08:15;8.40;;;4.10;;
19985;SDS011;10154;52.474;10.768;2023-07-31T10:10:42;11.88;;;3.80;;
19985;SDS011;10154;52.474;10.768;2023-07-31T10:13:08;7.82;;;3.70;;
19985;SDS011;10154;52.474;10.768;2023-07-31T10:15:33;10.30;;;3.67;;
19985;SDS011;10154;52.474;10.768;2023-07-31T10:17:59;6.50;;;3.35;;
19985;SDS011;10154;52.474;10.768;2023-07-31T10:20:25;13.77;;;3.78;;
19985;SDS011;10154;52.474;10.768;2023-07-31T10:22:52;7.80;;;3.55;;
19985;SDS011;10154;52.474;10.768;2023-07-31T10:25:20;7.85;;;3.75;;
19985;SDS011;10154;52.474;10.768;2023-07-31T10:27:47;6.75;;;3.10;;
19985;SDS011;10154;52.474;10.768;2023-07-31T10:30:15;7.68;;;2.80;;
19985;SDS011;10154;52.474;10.768;2023-07-31T10:32:41;8.50;;;3.08;;
19985;SDS011;10154;52.474;10.768;2023-07-31T10:35:07;3.75;;;2.17;;
19985;SDS011;10154;52.474;10.768;2023-07-31T10:37:40;5.93;;;2.60;;
19985;SDS011;10154;52.474;10.768;2023-07-31T10:42:38;5.05;;;2.60;;
19985;SDS011;10154;52.474;10.768;2023-07-31T10:45:12;5.55;;;2.53;;
19985;SDS011;10154;52.474;10.768;2023-07-31T10:47:44;8.70;;;2.38;;
19985;SDS011;10154;52.474;10.768;2023-07-31T10:50:20;5.53;;;2.47;;
19985;SDS011;10154;52.474;10.768;2023-07-31T10:52:49;8.13;;;2.85;;
19985;SDS011;10154;52.474;10.768;2023-07-31T10:57:55;4.88;;;2.10;;
19985;SDS011;10154;52.474;10.768;2023-07-31T11:00:24;9.68;;;2.50;;
19985;SDS011;10154;52.474;10.768;2023-07-31T11:08:26;7.03;;;2.90;;
19985;SDS011;10154;52.474;10.768;2023-07-31T11:13:39;4.88;;;2.20;;
19985;SDS011;10154;52.474;10.768;2023-07-31T11:16:11;3.97;;;2.42;;
19985;SDS011;10154;52.474;10.768;2023-07-31T11:18:41;10.73;;;5.13;;
19985;SDS011;10154;52.474;10.768;2023-07-31T11:21:08;6.53;;;2.50;;
19985;SDS011;10154;52.474;10.768;2023-07-31T11:23:40;8.57;;;2.90;;
19985;SDS011;10154;52.474;10.768;2023-07-31T11:26:05;4.35;;;2.30;;
19985;SDS011;10154;52.474;10.768;2023-07-31T11:28:32;7.78;;;2.60;;
19985;SDS011;10154;52.474;10.768;2023-07-31T11:30:59;5.85;;;2.40;;
19985;SDS011;10154;52.474;10.768;2023-07-31T11:33:24;4.22;;;2.17;;
19985;SDS011;10154;52.474;10.768;2023-07-31T11:35:50;7.63;;;2.38;;
19985;SDS011;10154;52.474;10.768;2023-07-31T11:38:25;4.93;;;1.80;;
19985;SDS011;10154;52.474;10.768;2023-07-31T11:40:52;4.40;;;2.22;;
19985;SDS011;10154;52.474;10.768;2023-07-31T11:43:18;3.42;;;2.03;;
19985;SDS011;10154;52.474;10.768;2023-07-31T11:45:45;4.43;;;2.03;;
19985;SDS011;10154;52.474;10.768;2023-07-31T11:48:22;4.20;;;1.90;;
19985;SDS011;10154;52.474;10.768;2023-07-31T11:50:52;5.22;;;1.80;;
19985;SDS011;10154;52.474;10.768;2023-07-31T11:53:27;6.38;;;2.00;;
19985;SDS011;10154;52.474;10.768;2023-07-31T11:56:00;3.03;;;1.80;;
19985;SDS011;10154;52.474;10.768;2023-07-31T11:58:26;5.07;;;2.15;;
19985;SDS011;10154;52.474;10.768;2023-07-31T12:00:52;4.97;;;1.90;;
19985;SDS011;10154;52.474;10.768;2023-07-31T12:03:18;5.78;;;1.92;;
19985;SDS011;10154;52.474;10.768;2023-07-31T12:05:44;5.18;;;2.00;;
19985;SDS011;10154;52.474;10.768;2023-07-31T12:08:10;4.13;;;1.80;;
19985;SDS011;10154;52.474;10.768;2023-07-31T12:10:36;2.90;;;1.63;;
19985;SDS011;10154;52.474;10.768;2023-07-31T12:18:04;3.30;;;1.75;;
19985;SDS011;10154;52.474;10.768;2023-07-31T12:20:31;3.88;;;1.73;;
19985;SDS011;10154;52.474;10.768;2023-07-31T12:22:57;3.67;;;1.80;;
19985;SDS011;10154;52.474;10.768;2023-07-31T12:25:23;7.93;;;2.00;;
19985;SDS011;10154;52.474;10.768;2023-07-31T12:27:56;3.75;;;2.00;;
19985;SDS011;10154;52.474;10.768;2023-07-31T12:30:32;6.07;;;2.08;;
19985;SDS011;10154;52.474;10.768;2023-07-31T12:33:02;5.75;;;1.90;;
19985;SDS011;10154;52.474;10.768;2023-07-31T12:35:34;4.10;;;1.88;;
19985;SDS011;10154;52.474;10.768;2023-07-31T12:38:03;4.28;;;1.70;;
19985;SDS011;10154;52.474;10.768;2023-07-31T12:40:28;4.10;;;1.75;;
19985;SDS011;10154;52.474;10.768;2023-07-31T12:42:54;3.88;;;1.98;;
19985;SDS011;10154;52.474;10.768;2023-07-31T12:45:19;2.97;;;1.75;;
19985;SDS011;10154;52.474;10.768;2023-07-31T12:47:46;4.90;;;1.70;;
19985;SDS011;10154;52.474;10.768;2023-07-31T12:50:11;3.22;;;1.77;;
19985;SDS011;10154;52.474;10.768;2023-07-31T12:52:36;4.22;;;1.70;;
19985;SDS011;10154;52.474;10.768;2023-07-31T12:55:03;3.70;;;1.85;;
19985;SDS011;10154;52.474;10.768;2023-07-31T12:57:29;4.85;;;2.15;;
19985;SDS011;10154;52.474;10.768;2023-07-31T12:59:55;4.05;;;2.10;;
19985;SDS011;10154;52.474;10.768;2023-07-31T13:02:20;5.15;;;1.98;;
19985;SDS011;10154;52.474;10.768;2023-07-31T13:04:46;4.78;;;1.83;;
19985;SDS011;10154;52.474;10.768;2023-07-31T13:07:11;3.05;;;1.60;;
19985;SDS011;10154;52.474;10.768;2023-07-31T13:09:36;3.22;;;1.80;;
19985;SDS011;10154;52.474;10.768;2023-07-31T13:12:02;6.93;;;2.13;;
19985;SDS011;10154;52.474;10.768;2023-07-31T13:14:28;3.90;;;2.10;;
19985;SDS011;10154;52.474;10.768;2023-07-31T13:16:53;5.53;;;1.80;;
19985;SDS011;10154;52.474;10.768;2023-07-31T13:19:19;2.83;;;1.80;;
19985;SDS011;10154;52.474;10.768;2023-07-31T13:21:44;2.88;;;1.70;;
19985;SDS011;10154;52.474;10.768;2023-07-31T13:24:09;3.80;;;1.85;;
19985;SDS011;10154;52.474;10.768;2023-07-31T13:26:35;3.05;;;1.60;;
19985;SDS011;10154;52.474;10.768;2023-07-31T13:29:02;4.60;;;1.80;;
19985;SDS011;10154;52.474;10.768;2023-07-31T13:31:27;2.33;;;1.67;;
19985;SDS011;10154;52.474;10.768;2023-07-31T13:33:52;4.60;;;1.77;;
19985;SDS011;10154;52.474;10.768;2023-07-31T13:36:18;3.55;;;1.52;;
19985;SDS011;10154;52.474;10.768;2023-07-31T13:38:43;2.92;;;1.55;;
19985;SDS011;10154;52.474;10.768;2023-07-31T13:41:08;2.50;;;1.45;;
19985;SDS011;10154;52.474;10.768;2023-07-31T13:43:34;3.15;;;1.52;;
19985;SDS011;10154;52.474;10.768;2023-07-31T13:45:59;3.40;;;1.50;;
19985;SDS011;10154;52.474;10.768;2023-07-31T13:48:31;2.47;;;1.20;;
19985;SDS011;10154;52.474;10.768;2023-07-31T13:50:57;4.10;;;1.42;;
19985;SDS011;10154;52.474;10.768;2023-07-31T13:53:22;2.42;;;1.27;;
19985;SDS011;10154;52.474;10.768;2023-07-31T13:55:47;2.13;;;1.40;;
19985;SDS011;10154;52.474;10.768;2023-07-31T13:58:14;2.15;;;1.10;;
19985;SDS011;10154;52.474;10.768;2023-07-31T14:00:39;4.55;;;1.40;;
19985;SDS011;10154;52.474;10.768;2023-07-31T14:03:04;5.53;;;1.00;;
19985;SDS011;10154;52.474;10.768;2023-07-31T14:05:30;1.48;;;1.00;;
19985;SDS011;10154;52.474;10.768;2023-07-31T14:07:55;2.08;;;0.90;;
19985;SDS011;10154;52.474;10.768;2023-07-31T14:10:21;1.40;;;0.90;;
19985;SDS011;10154;52.474;10.768;2023-07-31T14:12:46;2.10;;;1.00;;
19985;SDS011;10154;52.474;10.768;2023-07-31T14:15:11;1.35;;;0.98;;
19985;SDS011;10154;52.474;10.768;2023-07-31T14:17:37;1.45;;;1.10;;
19985;SDS011;10154;52.474;10.768;2023-07-31T14:20:02;1.52;;;1.00;;
19985;SDS011;10154;52.474;10.768;2023-07-31T14:22:28;1.25;;;1.05;;
19985;SDS011;10154;52.474;10.768;2023-07-31T14:24:54;2.30;;;1.02;;
19985;SDS011;10154;52.474;10.768;2023-07-31T14:27:20;1.50;;;0.70;;
19985;SDS011;10154;52.474;10.768;2023-07-31T14:29:45;2.35;;;0.70;;
19985;SDS011;10154;52.474;10.768;2023-07-31T14:32:11;1.05;;;0.77;;
19985;SDS011;10154;52.474;10.768;2023-07-31T14:34:36;3.33;;;0.70;;
19985;SDS011;10154;52.474;10.768;2023-07-31T14:37:01;0.93;;;0.70;;
19985;SDS011;10154;52.474;10.768;2023-07-31T14:39:27;1.48;;;0.80;;
19985;SDS011;10154;52.474;10.768;2023-07-31T14:41:52;1.58;;;0.77;;
19985;SDS011;10154;52.474;10.768;2023-07-31T14:44:17;1.27;;;0.55;;
19985;SDS011;10154;52.474;10.768;2023-07-31T14:46:43;0.57;;;0.50;;
19985;SDS011;10154;52.474;10.768;2023-07-31T14:49:08;0.70;;;0.60;;
19985;SDS011;10154;52.474;10.768;2023-07-31T14:51:33;0.98;;;0.57;;
19985;SDS011;10154;52.474;10.768;2023-07-31T14:53:59;1.13;;;0.70;;
19985;SDS011;10154;52.474;10.768;2023-07-31T14:56:24;1.02;;;0.70;;